Air Navigation Services of Czech Republic  
Last data update:  19.01.2018 14:57:09 UTC Česká verze
   METEO Page displayed:  19.01.2018 15:00:43 UTC  
help
METAR EDDB 191450Z 23005KT 9999 FEW012 BKN051 03/02 Q1007 TEMPO BKN012=
METAR EDDC 191450Z 24007KT 210V280 9999 FEW036 SCT056 BKN300 02/M00 Q1007 NOSIG=
METAR EDDE 191450Z 26009KT 9999 FEW016 BKN046 01/M00 Q1008 R88/290095 NOSIG=
METAR EDDF 191450Z 25010KT 9999 FEW034 06/M02 Q1010 NOSIG=
METAR EDDM 191450Z 26015KT 9999 VCSH FEW010TCU SCT060 05/M02 Q1011 TEMPO 28015G25KT 3000 SHSNRA SCT008 BKN012=
METAR EDDN 191450Z 25009KT 9999 FEW030 BKN050 04/M01 Q1010 R28/29//94 NOSIG=
METAR EDDP 191450Z 23010KT 9999 BKN015 BKN036 03/01 Q1008 NOSIG=
METAR EDDT 191450Z 22006KT 9999 FEW015CB BKN025 03/01 Q1007 TEMPO BKN012=
METAR EDQM 191450Z 26016KT 9999 FEW008 BKN014 OVC039 M00/M01 Q1007=
METAR EPBY 191430Z 27010KT 9999 OVC007 01/M00 Q1005 =
METAR EPGD 191430Z 30004KT 270V330 8000 -SHSN FEW007 SCT008TCU BKN011 01/M00 Q1002 R11/290095 =
METAR EPKK 191430Z 22008KT 9999 FEW018 01/M01 Q1007 =
METAR EPKT 191430Z 26007KT 9999 -SHSN FEW009TCU BKN010 00/M01 Q1007 =
METAR EPLL 191430Z 25008KT 220V280 9999 OVC011 01/M01 Q1005 =
METAR EPPO 191430Z 28006KT 9999 FEW010 OVC048 01/00 Q1006 R10/290095 =
METAR EPRZ 191430Z 27017KT 9999 BKN030 03/M04 Q1005 =
METAR EPWA 191430Z 28010KT 250V310 9999 SCT012 BKN047 01/M01 Q1003 R33/2///95 NOSIG=
METAR EPWR 191430Z 28005KT 9999 FEW012 BKN043 02/M00 Q1007 =
METAR LHBP 191430Z 21005KT 9999 SCT040 BKN110 04/03 Q1009 NOSIG=
METAR LHSM 191415Z 00000KT CAVOK 05/03 Q1010 NOSIG=
METAR LKCV 191400Z 29004KT 9999 FEW012 BKN024 OVC034 02/00 Q1008 NOSIG=
METAR LKKB 191400Z 23008KT 170V250 9999 SCT015 OVC050 03/00 Q1007 NOSIG =
METAR LKKU 191400Z 23006KT 8000 FEW002 SCT005 02/02 Q1009=
SPECI LKKV 191445Z 25012KT 6000 -SHSN SCT007 SCT025 M00/M01 Q1007 R29/////// RMK REG QNH 1003=
METAR LKLN 191400Z AUTO 24010KT 210V270 9999 FEW015 SCT046 03/00 Q1008=
METAR LKMT 191430Z 23012KT CAVOK 02/M01 Q1007 NOSIG RMK REG QNH 1003=
METAR LKNA 191400Z 26008KT 9999 FEW011 SCT025 BKN030 01/M00 Q1008 NOSIG=
SPECI LKPD 191428Z 22005KT 6000 -SHSN FEW004 BKN015 OVC020 00/M00 Q1008 =
METAR LKPR 191430Z 24013KT 9999 -SHRASN BKN019 03/M00 Q1007 R24/29//95 R30/29//95 TEMPO BKN015 RMK REG QNH 1003=
METAR LKTB 191430Z 28008KT 9999 SCT027 03/M01 Q1009 R27/29//95 NOSIG RMK REG QNH 1003=
METAR LKVO NIL
METAR LOWI 191450Z 06009KT 9999 FEW010 BKN080 03/00 Q1011 R08/29//95 NOSIG=
METAR LOWL 191450Z 26013KT 9999 FEW025 FEW030TCU SCT047 03/M01 Q1011 NOSIG=
METAR LOWS 191450Z 22008KT 190V290 9999 FEW028 BKN070 03/M01 Q1012 NOSIG=
METAR LOWW 191450Z 34013KT 9999 FEW025 04/00 Q1009 NOSIG=
METAR LZIB 191430Z 31011KT 9999 FEW018 04/00 Q1009 NOSIG=
METAR LZKZ 191430Z VRB01KT CAVOK 03/M02 Q1007 NOSIG=
METAR LZPP 191430Z 28003KT 250V310 9999 FEW020 SCT040 01/00 Q1009=
METAR LZSL 191430Z 26003KT 9999 SCT062 BKN081 01/M01 Q1007=
METAR LZTT 191430Z 25016KT 9999 FEW033 M00/M05 Q1004 NOSIG=
METAR LZZI 191430Z 25006KT 9999 SCT048 01/M01 Q1008=
METAR URRP NIL